createdAt,value
2023-05-02T00:01:24.877Z,13.35
2023-05-02T00:03:51.441Z,12.60
2023-05-02T00:06:18.082Z,13.20
2023-05-02T00:08:45.468Z,13.85
2023-05-02T00:11:12.714Z,14.27
2023-05-02T00:13:41.224Z,14.10
2023-05-02T00:16:07.883Z,12.45
2023-05-02T00:18:34.509Z,11.70
2023-05-02T00:21:01.173Z,13.15
2023-05-02T00:23:27.883Z,12.68
2023-05-02T00:25:54.503Z,12.25
2023-05-02T00:28:21.046Z,13.75
2023-05-02T00:30:48.013Z,11.90
2023-05-02T00:33:15.819Z,14.82
2023-05-02T00:35:43.145Z,13.20
2023-05-02T00:38:10.078Z,11.52
2023-05-02T00:40:48.036Z,13.27
2023-05-02T00:43:15.859Z,11.90
2023-05-02T00:45:44.126Z,14.23
2023-05-02T00:48:11.288Z,12.32
2023-05-02T00:50:42.770Z,12.18
2023-05-02T00:53:10.597Z,12.70
2023-05-02T00:55:37.651Z,13.32
2023-05-02T00:58:13.699Z,14.02
2023-05-02T01:00:54.957Z,12.30
2023-05-02T01:03:51.105Z,13.60
2023-05-02T01:06:36.407Z,11.57
2023-05-02T01:09:49.592Z,12.77
2023-05-02T01:12:28.876Z,12.95
2023-05-02T01:14:58.545Z,12.32
2023-05-02T01:17:32.733Z,10.98
2023-05-02T01:20:04.965Z,11.15
2023-05-02T01:22:32.566Z,12.20
2023-05-02T01:25:26.489Z,12.68
2023-05-02T01:27:58.814Z,11.40
2023-05-02T01:30:28.945Z,10.30
2023-05-02T01:32:57.980Z,11.13
2023-05-02T01:35:26.415Z,10.05
2023-05-02T01:37:54.774Z,12.40
2023-05-02T01:40:23.162Z,10.15
2023-05-02T01:42:51.832Z,11.98
2023-05-02T01:45:20.866Z,10.80
2023-05-02T01:47:48.616Z,10.88
2023-05-02T01:50:20.161Z,10.75
2023-05-02T01:52:49.631Z,11.57
2023-05-02T01:55:17.485Z,11.38
2023-05-02T01:57:47.107Z,10.65
2023-05-02T02:00:19.252Z,11.80
2023-05-02T02:02:47.686Z,10.60
2023-05-02T02:05:14.794Z,12.68
2023-05-02T02:07:43.419Z,13.88
2023-05-02T02:10:10.354Z,12.27
2023-05-02T02:12:42.209Z,11.52
2023-05-02T02:15:21.124Z,11.00
2023-05-02T02:18:03.004Z,11.98
2023-05-02T02:20:30.379Z,11.50
2023-05-02T02:22:58.734Z,13.55
2023-05-02T02:25:26.889Z,12.93
2023-05-02T02:27:54.158Z,11.75
2023-05-02T02:30:20.726Z,11.90
2023-05-02T02:32:47.314Z,10.95
2023-05-02T02:35:14.061Z,9.73
2023-05-02T02:37:59.091Z,11.05
2023-05-02T02:40:31.516Z,12.05
2023-05-02T02:43:12.808Z,11.00
2023-05-02T02:45:48.412Z,12.27
2023-05-02T02:48:33.140Z,10.43
2023-05-02T02:51:07.320Z,12.38
2023-05-02T02:54:25.835Z,10.55
2023-05-02T02:57:02.077Z,11.77
2023-05-02T02:59:38.642Z,10.50
2023-05-02T03:02:08.807Z,10.73
2023-05-02T03:04:39.119Z,10.77
2023-05-02T03:07:06.070Z,10.90
2023-05-02T03:09:43.300Z,9.93
2023-05-02T03:12:09.998Z,10.77
2023-05-02T03:14:37.270Z,11.13
2023-05-02T03:17:04.386Z,10.32
2023-05-02T03:19:31.340Z,12.73
2023-05-02T03:21:57.879Z,10.18
2023-05-02T03:24:24.497Z,11.68
2023-05-02T03:26:54.852Z,11.15
2023-05-02T03:29:21.466Z,10.68
2023-05-02T03:31:48.120Z,9.30
2023-05-02T03:34:14.709Z,10.63
2023-05-02T03:36:41.498Z,10.75
2023-05-02T03:39:08.212Z,9.93
2023-05-02T03:41:34.861Z,9.57
2023-05-02T03:44:01.398Z,9.90
2023-05-02T03:46:28.000Z,10.25
2023-05-02T03:48:54.560Z,12.65
2023-05-02T03:51:21.188Z,13.55
2023-05-02T03:53:48.225Z,13.52
2023-05-02T03:56:20.174Z,9.82
2023-05-02T03:58:48.700Z,9.30
2023-05-02T04:01:16.418Z,11.02
2023-05-02T04:03:43.645Z,11.05
2023-05-02T04:06:10.767Z,10.80
2023-05-02T04:08:37.654Z,9.82
2023-05-02T04:11:04.344Z,13.32
2023-05-02T04:13:31.093Z,12.00
2023-05-02T04:15:57.767Z,10.82
2023-05-02T04:18:24.524Z,10.27
2023-05-02T04:20:51.172Z,9.93
2023-05-02T04:23:17.940Z,9.07
2023-05-02T04:25:56.599Z,12.10
2023-05-02T04:28:23.956Z,11.00
2023-05-02T04:30:50.939Z,10.48
2023-05-02T04:33:18.539Z,11.48
2023-05-02T04:35:45.519Z,10.15
2023-05-02T04:38:12.251Z,10.77
2023-05-02T04:40:39.061Z,10.45
2023-05-02T04:43:05.778Z,9.90
2023-05-02T04:45:32.608Z,12.57
2023-05-02T04:47:59.320Z,12.60
2023-05-02T04:50:28.140Z,9.88
2023-05-02T04:52:54.754Z,9.00
2023-05-02T04:55:21.429Z,9.50
2023-05-02T04:57:47.988Z,9.65
2023-05-02T05:00:15.496Z,8.55
2023-05-02T05:02:43.195Z,9.70
2023-05-02T05:05:10.111Z,9.48
2023-05-02T05:07:37.272Z,8.50
2023-05-02T05:10:04.025Z,8.65
2023-05-02T05:12:30.751Z,9.68
2023-05-02T05:14:57.336Z,10.15
2023-05-02T05:17:23.954Z,8.32
2023-05-02T05:19:50.979Z,11.18
2023-05-02T05:22:17.745Z,11.18
2023-05-02T05:24:51.846Z,11.13
2023-05-02T05:27:18.524Z,11.07
2023-05-02T05:29:45.128Z,12.02
2023-05-02T05:32:11.777Z,9.80
2023-05-02T05:34:38.981Z,11.38
2023-05-02T05:37:05.717Z,10.07
2023-05-02T05:39:32.574Z,9.52
2023-05-02T05:41:59.749Z,11.63
2023-05-02T05:44:26.398Z,9.73
2023-05-02T05:46:53.085Z,10.45
2023-05-02T05:49:19.770Z,10.20
2023-05-02T05:51:47.633Z,10.80
2023-05-02T05:54:14.214Z,10.15
2023-05-02T05:56:40.933Z,12.00
2023-05-02T05:59:08.308Z,10.23
2023-05-02T06:01:35.868Z,12.85
2023-05-02T06:04:05.821Z,11.82
2023-05-02T06:06:32.754Z,12.00
2023-05-02T06:09:00.059Z,11.20
2023-05-02T06:11:26.761Z,11.35
2023-05-02T06:13:54.019Z,12.40
2023-05-02T06:16:20.778Z,13.32
2023-05-02T06:18:47.557Z,14.93
2023-05-02T06:21:14.442Z,12.32
2023-05-02T06:23:41.255Z,14.75
2023-05-02T06:26:07.918Z,12.40
2023-05-02T06:28:34.480Z,12.95
2023-05-02T06:31:05.957Z,12.95
2023-05-02T06:33:33.919Z,12.57
2023-05-02T06:36:01.925Z,12.70
2023-05-02T06:38:28.940Z,12.68
2023-05-02T06:40:55.814Z,12.32
2023-05-02T06:43:22.516Z,12.07
2023-05-02T06:45:49.176Z,10.93
2023-05-02T06:48:16.957Z,12.23
2023-05-02T06:50:43.642Z,10.13
2023-05-02T06:53:10.482Z,9.65
2023-05-02T06:55:37.213Z,10.85
2023-05-02T06:58:03.884Z,11.27
2023-05-02T07:00:30.664Z,10.48
2023-05-02T07:02:57.321Z,10.40
2023-05-02T07:05:23.904Z,9.52
2023-05-02T07:07:50.454Z,10.52
2023-05-02T07:10:17.169Z,9.68
2023-05-02T07:12:43.754Z,10.80
2023-05-02T07:15:10.824Z,11.65
2023-05-02T07:17:37.538Z,10.40
2023-05-02T07:20:04.750Z,11.80
2023-05-02T07:22:32.077Z,10.20
2023-05-02T07:25:02.658Z,11.00
2023-05-02T07:27:29.345Z,10.85
2023-05-02T07:29:55.966Z,9.10
2023-05-02T07:32:22.752Z,8.68
2023-05-02T07:34:49.507Z,7.68
2023-05-02T07:37:16.156Z,7.88
2023-05-02T07:39:42.788Z,7.60
2023-05-02T07:42:09.490Z,6.63
2023-05-02T07:44:36.823Z,6.95
2023-05-02T07:47:03.428Z,6.47
2023-05-02T07:49:31.348Z,7.05
2023-05-02T07:51:58.240Z,7.60
2023-05-02T07:54:27.828Z,7.88
2023-05-02T07:56:56.846Z,8.07
2023-05-02T07:59:23.515Z,7.78
2023-05-02T08:01:50.106Z,7.05
2023-05-02T08:04:16.929Z,8.15
2023-05-02T08:06:45.174Z,8.13
2023-05-02T08:09:11.882Z,9.10
2023-05-02T08:11:38.505Z,9.90
2023-05-02T08:14:05.100Z,9.93
2023-05-02T08:16:31.795Z,9.77
2023-05-02T08:18:58.464Z,7.72
2023-05-02T08:21:25.135Z,9.45
2023-05-02T08:23:51.766Z,8.98
2023-05-02T08:26:19.047Z,7.82
2023-05-02T08:28:45.845Z,7.65
2023-05-02T08:31:12.536Z,8.55
2023-05-02T08:33:39.172Z,9.02
2023-05-02T08:36:16.428Z,8.55
2023-05-02T08:38:44.336Z,7.95
2023-05-02T08:41:17.609Z,8.95
2023-05-02T08:43:47.538Z,7.68
2023-05-02T08:46:15.864Z,9.25
2023-05-02T08:48:45.465Z,7.95
2023-05-02T08:51:17.247Z,8.80
2023-05-02T08:53:44.924Z,8.40
2023-05-02T08:56:12.938Z,9.30
2023-05-02T08:58:40.857Z,10.02
2023-05-02T09:01:17.286Z,8.20
2023-05-02T09:03:46.423Z,10.23
2023-05-02T09:06:16.111Z,8.73
2023-05-02T09:08:44.701Z,9.25
2023-05-02T09:11:12.483Z,8.73
2023-05-02T09:13:43.927Z,9.13
2023-05-02T09:16:16.191Z,8.80
2023-05-02T09:18:46.781Z,8.68
2023-05-02T09:21:20.634Z,9.13
2023-05-02T09:23:50.168Z,10.43
2023-05-02T09:26:21.106Z,9.38
2023-05-02T09:28:49.674Z,8.50
2023-05-02T09:31:26.787Z,8.68
2023-05-02T09:34:09.711Z,8.07
2023-05-02T09:36:41.329Z,8.13
2023-05-02T09:39:15.947Z,7.00
2023-05-02T09:41:44.175Z,8.13
2023-05-02T09:44:12.616Z,6.25
2023-05-02T09:46:44.506Z,6.55
2023-05-02T09:49:11.248Z,5.70
2023-05-02T09:51:38.279Z,5.28
2023-05-02T09:54:04.934Z,5.00
2023-05-02T09:56:31.660Z,5.00
2023-05-02T09:59:14.999Z,5.50
2023-05-02T10:01:42.421Z,6.55
2023-05-02T10:04:16.414Z,5.20
2023-05-02T10:06:45.269Z,5.07
2023-05-02T10:09:17.189Z,5.40
2023-05-02T10:11:46.415Z,5.00
2023-05-02T10:14:15.656Z,7.35
2023-05-02T10:16:52.641Z,5.18
2023-05-02T10:19:27.104Z,5.72
2023-05-02T10:21:54.237Z,5.72
2023-05-02T10:24:21.446Z,8.57
2023-05-02T10:26:48.430Z,7.13
2023-05-02T10:29:15.294Z,9.05
2023-05-02T10:31:44.802Z,8.05
2023-05-02T10:34:13.332Z,8.25
2023-05-02T10:36:40.590Z,9.75
2023-05-02T10:39:07.436Z,10.27
2023-05-02T10:41:34.915Z,9.45
2023-05-02T10:44:07.386Z,10.55
2023-05-02T10:46:41.990Z,9.10
2023-05-02T10:49:12.522Z,10.75
2023-05-02T10:51:41.297Z,11.88
2023-05-02T10:54:26.190Z,10.45
2023-05-02T10:57:11.203Z,12.63
2023-05-02T10:59:44.276Z,12.13
2023-05-02T11:02:23.658Z,12.40
2023-05-02T11:05:06.359Z,11.13
2023-05-02T11:07:35.161Z,13.48
2023-05-02T11:10:16.729Z,12.35
2023-05-02T11:12:57.305Z,15.07
2023-05-02T11:15:29.954Z,10.90
2023-05-02T11:18:08.802Z,11.20
2023-05-02T11:20:37.163Z,10.90
2023-05-02T11:23:30.386Z,8.15
2023-05-02T11:26:00.416Z,9.18
2023-05-02T11:28:48.130Z,8.77
2023-05-02T11:31:27.502Z,11.48
2023-05-02T11:34:01.688Z,15.68
2023-05-02T11:36:35.751Z,9.73
2023-05-02T11:39:05.205Z,9.80
2023-05-02T11:41:42.307Z,11.68
2023-05-02T11:44:09.265Z,9.73
2023-05-02T11:46:40.635Z,12.35
2023-05-02T11:49:09.420Z,13.40
2023-05-02T11:51:36.684Z,8.80
2023-05-02T11:54:03.921Z,7.97
2023-05-02T11:56:31.459Z,8.82
2023-05-02T11:59:03.178Z,8.45
2023-05-02T12:01:31.199Z,9.52
2023-05-02T12:04:05.602Z,11.20
2023-05-02T12:06:32.416Z,10.85
2023-05-02T12:09:17.835Z,9.43
2023-05-02T12:11:44.840Z,9.85
2023-05-02T12:14:11.453Z,11.90
2023-05-02T12:16:38.237Z,11.25
2023-05-02T12:19:05.615Z,10.07
2023-05-02T12:21:33.443Z,9.23
2023-05-02T12:24:01.770Z,13.43
2023-05-02T12:26:30.873Z,9.30
2023-05-02T12:29:02.599Z,10.45
2023-05-02T12:31:31.286Z,10.45
2023-05-02T12:34:00.212Z,9.20
2023-05-02T12:36:30.833Z,10.27
2023-05-02T12:38:59.518Z,10.77
2023-05-02T12:41:37.628Z,8.38
2023-05-02T12:44:05.741Z,9.40
2023-05-02T12:46:32.747Z,10.43
2023-05-02T12:49:18.005Z,10.38
2023-05-02T12:51:53.589Z,9.48
2023-05-02T12:54:21.213Z,8.73
2023-05-02T12:56:48.799Z,7.43
2023-05-02T12:59:28.313Z,8.82
2023-05-02T13:01:57.949Z,9.25
2023-05-02T13:04:38.949Z,11.10
2023-05-02T13:07:05.738Z,9.23
2023-05-02T13:09:32.484Z,9.50
2023-05-02T13:11:59.205Z,8.10
2023-05-02T13:14:26.543Z,7.93
2023-05-02T13:16:55.072Z,10.95
2023-05-02T13:19:22.620Z,10.50
2023-05-02T13:21:49.429Z,10.52
2023-05-02T13:24:17.440Z,8.93
2023-05-02T13:26:44.404Z,9.25
2023-05-02T13:29:12.658Z,8.23
2023-05-02T13:31:39.500Z,10.73
2023-05-02T13:34:06.171Z,9.07
2023-05-02T13:36:32.806Z,13.23
2023-05-02T13:38:59.546Z,12.20
2023-05-02T13:41:26.925Z,9.82
2023-05-02T13:43:54.195Z,9.30
2023-05-02T13:46:20.887Z,9.43
2023-05-02T13:48:47.438Z,10.98
2023-05-02T13:51:14.012Z,11.05
2023-05-02T13:53:40.687Z,8.00
2023-05-02T13:56:07.453Z,9.35
2023-05-02T13:58:33.995Z,10.25
2023-05-02T14:01:01.175Z,9.63
2023-05-02T14:03:27.887Z,8.65
2023-05-02T14:05:54.504Z,7.70
2023-05-02T14:08:21.091Z,8.38
2023-05-02T14:10:47.771Z,9.90
2023-05-02T14:13:14.450Z,10.80
2023-05-02T14:15:41.069Z,9.35
2023-05-02T14:18:07.764Z,9.93
2023-05-02T14:20:34.415Z,10.00
2023-05-02T14:23:01.181Z,10.35
2023-05-02T14:25:27.769Z,8.25
2023-05-02T14:27:54.351Z,7.88
2023-05-02T14:30:21.162Z,7.90
2023-05-02T14:32:47.773Z,8.25
2023-05-02T14:35:14.409Z,8.55
2023-05-02T14:37:41.762Z,8.48
2023-05-02T14:40:09.162Z,7.97
2023-05-02T14:42:35.870Z,8.68
2023-05-02T14:45:02.723Z,9.63
2023-05-02T14:47:32.634Z,9.57
2023-05-02T14:49:59.528Z,9.02
2023-05-02T14:52:26.908Z,7.28
2023-05-02T14:54:53.519Z,9.70
2023-05-02T14:57:20.195Z,9.43
2023-05-02T14:59:46.875Z,11.40
2023-05-02T15:02:13.619Z,9.77
2023-05-02T15:04:40.900Z,8.90
2023-05-02T15:07:07.979Z,9.60
2023-05-02T15:09:34.736Z,9.05
2023-05-02T15:12:02.823Z,8.77
2023-05-02T15:14:29.420Z,12.20
2023-05-02T15:16:56.158Z,7.93
2023-05-02T15:19:23.948Z,12.10
2023-05-02T15:21:53.095Z,9.93
2023-05-02T15:24:19.970Z,10.35
2023-05-02T15:26:46.882Z,8.85
2023-05-02T15:29:13.723Z,9.05
2023-05-02T15:31:40.474Z,10.60
2023-05-02T15:34:07.078Z,10.25
2023-05-02T15:36:37.295Z,10.98
2023-05-02T15:39:07.400Z,9.30
2023-05-02T15:41:34.246Z,9.23
2023-05-02T15:44:01.385Z,10.40
2023-05-02T15:46:28.192Z,9.63
2023-05-02T15:48:54.845Z,9.95
2023-05-02T15:51:21.400Z,8.40
2023-05-02T15:53:52.084Z,8.80
2023-05-02T15:56:21.053Z,10.45
2023-05-02T15:58:48.171Z,8.98
2023-05-02T16:01:14.912Z,9.73
2023-05-02T16:03:42.008Z,9.25
2023-05-02T16:06:08.821Z,9.52
2023-05-02T16:08:35.882Z,9.90
2023-05-02T16:11:02.464Z,10.05
2023-05-02T16:13:29.421Z,7.07
2023-05-02T16:15:56.166Z,10.77
2023-05-02T16:18:27.962Z,10.13
2023-05-02T16:20:58.240Z,7.90
2023-05-02T16:23:25.667Z,11.60
2023-05-02T16:26:01.870Z,10.55
2023-05-02T16:28:29.704Z,10.43
2023-05-02T16:30:56.465Z,9.73
2023-05-02T16:33:23.265Z,11.43
2023-05-02T16:35:49.874Z,10.93
2023-05-02T16:38:16.570Z,9.10
2023-05-02T16:40:43.195Z,11.00
2023-05-02T16:43:09.790Z,10.32
2023-05-02T16:45:36.781Z,10.77
2023-05-02T16:48:04.504Z,11.88
2023-05-02T16:50:31.530Z,9.52
2023-05-02T16:52:58.068Z,12.52
2023-05-02T16:55:24.554Z,9.15
2023-05-02T16:57:51.167Z,11.80
2023-05-02T17:00:18.304Z,9.23
2023-05-02T17:02:44.999Z,8.43
2023-05-02T17:05:11.738Z,10.52
2023-05-02T17:07:38.388Z,12.43
2023-05-02T17:10:05.484Z,10.07
2023-05-02T17:12:32.507Z,8.25
2023-05-02T17:15:01.005Z,10.35
2023-05-02T17:17:28.623Z,11.00
2023-05-02T17:19:55.171Z,9.60
2023-05-02T17:22:21.807Z,9.38
2023-05-02T17:24:52.778Z,10.45
2023-05-02T17:27:19.924Z,10.10
2023-05-02T17:29:46.628Z,7.07
2023-05-02T17:32:15.598Z,10.23
2023-05-02T17:34:43.369Z,11.68
2023-05-02T17:37:10.338Z,13.70
2023-05-02T17:39:36.938Z,7.63
2023-05-02T17:42:03.507Z,11.73
2023-05-02T17:44:35.914Z,11.32
2023-05-02T17:47:03.824Z,7.90
2023-05-02T17:49:30.555Z,8.38
2023-05-02T17:51:57.125Z,10.93
2023-05-02T17:54:23.768Z,8.57
2023-05-02T17:56:50.765Z,8.27
2023-05-02T17:59:18.826Z,8.32
2023-05-02T18:01:45.547Z,9.73
2023-05-02T18:04:14.107Z,9.20
2023-05-02T18:06:40.822Z,9.68
2023-05-02T18:09:07.453Z,12.13
2023-05-02T18:11:34.794Z,9.45
2023-05-02T18:14:04.019Z,8.27
2023-05-02T18:16:31.968Z,8.65
2023-05-02T18:18:58.700Z,10.77
2023-05-02T18:21:25.840Z,7.90
2023-05-02T18:23:54.325Z,9.25
2023-05-02T18:26:20.964Z,10.10
2023-05-02T18:28:53.007Z,9.40
2023-05-02T18:31:20.293Z,8.40
2023-05-02T18:33:47.011Z,8.77
2023-05-02T18:36:14.613Z,8.10
2023-05-02T18:38:42.021Z,9.80
2023-05-02T18:41:09.327Z,7.47
2023-05-02T18:43:36.298Z,9.15
2023-05-02T18:46:03.165Z,8.95
2023-05-02T18:48:30.056Z,9.25
2023-05-02T18:50:56.961Z,9.88
2023-05-02T18:53:26.078Z,9.18
2023-05-02T18:55:53.980Z,9.00
2023-05-02T18:58:21.566Z,14.95
2023-05-02T19:00:48.789Z,8.13
2023-05-02T19:03:15.766Z,8.60
2023-05-02T19:05:43.178Z,9.00
2023-05-02T19:08:10.326Z,10.75
2023-05-02T19:10:36.953Z,12.27
2023-05-02T19:13:03.868Z,11.93
2023-05-02T19:15:30.429Z,12.85
2023-05-02T19:17:58.753Z,11.50
2023-05-02T19:20:28.688Z,9.30
2023-05-02T19:23:07.185Z,9.30
2023-05-02T19:25:42.132Z,11.88
2023-05-02T19:28:08.720Z,9.55
2023-05-02T19:30:35.347Z,8.10
2023-05-02T19:33:02.006Z,10.57
2023-05-02T19:35:29.390Z,9.02
2023-05-02T19:37:56.104Z,9.73
2023-05-02T19:40:22.654Z,9.02
2023-05-02T19:42:49.201Z,10.73
2023-05-02T19:45:15.859Z,8.35
2023-05-02T19:47:44.091Z,7.82
2023-05-02T19:50:11.939Z,10.00
2023-05-02T19:52:41.306Z,9.52
2023-05-02T19:55:09.100Z,7.93
2023-05-02T19:57:36.103Z,7.55
2023-05-02T20:00:03.203Z,10.70
2023-05-02T20:02:30.972Z,8.52
2023-05-02T20:04:57.683Z,7.43
2023-05-02T20:07:24.861Z,12.85
2023-05-02T20:09:51.470Z,8.07
2023-05-02T20:12:18.195Z,6.70
2023-05-02T20:14:44.815Z,9.57
2023-05-02T20:17:11.880Z,8.18
2023-05-02T20:19:38.580Z,7.43
2023-05-02T20:22:05.196Z,6.90
2023-05-02T20:24:31.762Z,7.38
2023-05-02T20:26:58.366Z,9.27
2023-05-02T20:29:25.088Z,8.48
2023-05-02T20:31:52.138Z,6.97
2023-05-02T20:34:19.901Z,7.78
2023-05-02T20:36:46.994Z,8.13
2023-05-02T20:39:14.260Z,8.43
2023-05-02T20:41:40.996Z,8.48
2023-05-02T20:44:07.722Z,7.65
2023-05-02T20:46:34.472Z,9.77
2023-05-02T20:49:01.206Z,8.30
2023-05-02T20:51:29.504Z,9.35
2023-05-02T20:53:56.337Z,7.55
2023-05-02T20:56:23.178Z,8.60
2023-05-02T20:58:49.777Z,10.07
2023-05-02T21:01:16.494Z,9.80
2023-05-02T21:03:43.175Z,7.57
2023-05-02T21:06:10.003Z,7.28
2023-05-02T21:08:36.811Z,8.35
2023-05-02T21:11:12.392Z,7.97
2023-05-02T21:13:40.688Z,8.98
2023-05-02T21:16:22.899Z,8.48
2023-05-02T21:18:49.534Z,7.93
2023-05-02T21:21:16.286Z,7.72
2023-05-02T21:23:42.881Z,7.60
2023-05-02T21:26:09.544Z,6.90
2023-05-02T21:28:37.903Z,8.05
2023-05-02T21:31:04.821Z,8.25
2023-05-02T21:33:31.488Z,8.18
2023-05-02T21:35:59.090Z,7.25
2023-05-02T21:38:26.147Z,7.40
2023-05-02T21:40:53.930Z,9.52
2023-05-02T21:43:20.804Z,7.35
2023-05-02T21:45:49.465Z,9.48
2023-05-02T21:48:17.072Z,8.35
2023-05-02T21:50:44.784Z,8.60
2023-05-02T21:53:11.575Z,9.85
2023-05-02T21:55:39.562Z,8.13
2023-05-02T21:58:07.416Z,8.18
2023-05-02T22:00:38.191Z,8.18
2023-05-02T22:03:11.470Z,8.25
2023-05-02T22:05:39.898Z,8.68
2023-05-02T22:08:07.986Z,9.52
2023-05-02T22:10:38.498Z,8.43
2023-05-02T22:13:05.974Z,10.75
2023-05-02T22:15:32.656Z,7.72
2023-05-02T22:17:59.260Z,8.65
2023-05-02T22:20:26.190Z,9.55
2023-05-02T22:22:52.789Z,7.15
2023-05-02T22:25:19.433Z,7.65
2023-05-02T22:27:46.054Z,10.77
2023-05-02T22:30:12.779Z,7.10
2023-05-02T22:32:41.256Z,8.93
2023-05-02T22:35:08.895Z,7.60
2023-05-02T22:37:35.571Z,6.78
2023-05-02T22:40:02.774Z,7.47
2023-05-02T22:42:29.584Z,8.73
2023-05-02T22:44:56.134Z,9.00
2023-05-02T22:47:22.888Z,7.93
2023-05-02T22:49:50.977Z,6.45
2023-05-02T22:52:18.365Z,7.18
2023-05-02T22:54:45.020Z,9.70
2023-05-02T22:57:11.596Z,8.38
2023-05-02T22:59:38.180Z,7.53
2023-05-02T23:02:04.994Z,8.40
2023-05-02T23:04:33.401Z,9.85
2023-05-02T23:06:59.997Z,8.20
2023-05-02T23:09:26.625Z,10.02
2023-05-02T23:11:53.332Z,8.38
2023-05-02T23:14:21.860Z,12.05
2023-05-02T23:16:53.608Z,8.70
2023-05-02T23:19:20.549Z,6.95
2023-05-02T23:21:47.116Z,7.65
2023-05-02T23:24:13.736Z,7.65
2023-05-02T23:26:40.738Z,11.35
2023-05-02T23:29:07.313Z,8.55
2023-05-02T23:31:33.949Z,7.28
2023-05-02T23:34:00.798Z,8.32
2023-05-02T23:36:27.525Z,12.10
2023-05-02T23:38:54.391Z,10.50
2023-05-02T23:41:22.117Z,7.70
2023-05-02T23:43:48.961Z,7.65
2023-05-02T23:46:15.824Z,8.05
2023-05-02T23:48:42.479Z,7.95
2023-05-02T23:51:09.089Z,7.65
2023-05-02T23:53:35.767Z,9.00
2023-05-02T23:56:02.309Z,8.65
2023-05-02T23:58:28.968Z,9.07
